Gryphon — WDD9532 — position and weather

sailwx.info

Track history (hours):
 
Tides and Currents Weather Stations Pressure Air Temp Water Temp Dewpoint Dewpoint Depression Visibility Wind Speed Wind Dir Waves Ship Positions

Gryphon

Owner: Lewis, Paul A, Seattle, WA. More information available from US FCC via Universal Licensing System and Coast Guard Vessel Documentation Center.

Last reported at 2016-Aug-31 16:24 UTC. Time now 2016-Sep-01 02:00 UTC.
Position N 49°11' W 123°56'.

Length 14 m.

Type: Pleasure craft. MMSI: 367312780.

Date/timePositionNaut miles runAvg speedWind from/ knotsBaromVisibWave heightAir tempDewpointWater temp
2016-Aug-31 16:24N 49°11' W 123°56'0 0.0
2016-Aug-31 15:30N 49°11' W 123°56'0 0.0
2016-Aug-31 14:30N 49°11' W 123°56'0 0.0
2016-Aug-31 13:24N 49°11' W 123°56'0 0.0
2016-Aug-31 12:24N 49°11' W 123°56'0 0.0
2016-Aug-31 11:33N 49°11' W 123°56'0 0.0
2016-Aug-31 10:27N 49°11' W 123°56'0 0.0
2016-Aug-31 09:33N 49°11' W 123°56'0 0.0
2016-Aug-31 08:27N 49°11' W 123°56'0 0.0
2016-Aug-31 07:27N 49°11' W 123°56'0 0.0
2016-Aug-31 06:33N 49°11' W 123°56'0 0.0
2016-Aug-31 04:30N 49°11' W 123°56'0 0.0
2016-Aug-31 03:33N 49°11' W 123°56'0 0.0
2016-Aug-31 02:33N 49°11' W 123°56'0 0.0
2016-Aug-31 01:30N 49°11' W 123°56'0 0.0
2016-Aug-31 00:30N 49°11' W 123°56'45 1.5
2016-Aug-29 17:17N 48°37' W 123°10'8 0.2
2016-Aug-27 20:33N 48°33' W 122°59'1 1.2
2016-Aug-27 19:33N 48°33' W 123°01'0 0.0
2016-Aug-26 22:05N 48°33' W 123°01'0 0.0
2016-Aug-26 21:32N 48°33' W 123°01'4 3.6
2016-Aug-26 20:33N 48°33' W 122°56'6 5.7
2016-Aug-26 19:31N 48°32' W 122°47'5 2.2
2016-Aug-26 17:25N 48°30' W 122°41'  
Track history (hours):
 
Tides and Currents Weather Stations Pressure Air Temp Water Temp Dewpoint Dewpoint Depression Visibility Wind Speed Wind Dir Waves Ship Positions

Gryphon

Owner: Lewis, Paul A, Seattle, WA. More information available from US FCC via Universal Licensing System and Coast Guard Vessel Documentation Center.

Last reported at 2016-Aug-31 16:24 UTC. Time now 2016-Sep-01 02:00 UTC.
Position N 49°11' W 123°56'.

Length 14 m.

Type: Pleasure craft. MMSI: 367312780.

Date/timePositionNaut miles runAvg speedWind from/ knotsBaromVisibWave heightAir tempDewpointWater temp
2016-Aug-31 16:24N 49°11' W 123°56'0 0.0
2016-Aug-31 15:30N 49°11' W 123°56'0 0.0
2016-Aug-31 14:30N 49°11' W 123°56'0 0.0
2016-Aug-31 13:24N 49°11' W 123°56'0 0.0
2016-Aug-31 12:24N 49°11' W 123°56'0 0.0
2016-Aug-31 11:33N 49°11' W 123°56'0 0.0
2016-Aug-31 10:27N 49°11' W 123°56'0 0.0
2016-Aug-31 09:33N 49°11' W 123°56'0 0.0
2016-Aug-31 08:27N 49°11' W 123°56'0 0.0
2016-Aug-31 07:27N 49°11' W 123°56'0 0.0
2016-Aug-31 06:33N 49°11' W 123°56'0 0.0
2016-Aug-31 04:30N 49°11' W 123°56'0 0.0
2016-Aug-31 03:33N 49°11' W 123°56'0 0.0
2016-Aug-31 02:33N 49°11' W 123°56'0 0.0
2016-Aug-31 01:30N 49°11' W 123°56'0 0.0
2016-Aug-31 00:30N 49°11' W 123°56'45 1.5
2016-Aug-29 17:17N 48°37' W 123°10'8 0.2
2016-Aug-27 20:33N 48°33' W 122°59'1 1.2
2016-Aug-27 19:33N 48°33' W 123°01'0 0.0
2016-Aug-26 22:05N 48°33' W 123°01'0 0.0
2016-Aug-26 21:32N 48°33' W 123°01'4 3.6
2016-Aug-26 20:33N 48°33' W 122°56'6 5.7
2016-Aug-26 19:31N 48°32' W 122°47'5 2.2
2016-Aug-26 17:25N 48°30' W 122°41'  

Dump ship's entire track history